sensor_id;sensor_type;location;lat;lon;timestamp;P1;durP1;ratioP1;P2;durP2;ratioP2
53652;SDS011;39553;52.954;5.932;2022-09-20T00:01:01;7.70;;;0.98;;
53652;SDS011;39553;52.954;5.932;2022-09-20T00:03:27;8.80;;;1.48;;
53652;SDS011;39553;52.954;5.932;2022-09-20T00:05:53;5.00;;;1.50;;
53652;SDS011;39553;52.954;5.932;2022-09-20T00:08:18;4.75;;;1.60;;
53652;SDS011;39553;52.954;5.932;2022-09-20T00:10:44;5.93;;;1.27;;
53652;SDS011;39553;52.954;5.932;2022-09-20T00:13:11;10.00;;;1.08;;
53652;SDS011;39553;52.954;5.932;2022-09-20T00:15:42;7.82;;;1.08;;
53652;SDS011;39553;52.954;5.932;2022-09-20T00:18:09;7.47;;;0.93;;
53652;SDS011;39553;52.954;5.932;2022-09-20T00:20:35;7.03;;;1.65;;
53652;SDS011;39553;52.954;5.932;2022-09-20T00:23:08;3.97;;;1.15;;
53652;SDS011;39553;52.954;5.932;2022-09-20T00:25:33;5.13;;;1.15;;
53652;SDS011;39553;52.954;5.932;2022-09-20T00:27:59;4.00;;;0.98;;
53652;SDS011;39553;52.954;5.932;2022-09-20T00:30:25;6.68;;;1.33;;
53652;SDS011;39553;52.954;5.932;2022-09-20T00:32:51;5.30;;;1.02;;
53652;SDS011;39553;52.954;5.932;2022-09-20T00:35:17;3.63;;;0.90;;
53652;SDS011;39553;52.954;5.932;2022-09-20T00:37:43;7.22;;;1.38;;
53652;SDS011;39553;52.954;5.932;2022-09-20T00:40:16;4.43;;;1.27;;
53652;SDS011;39553;52.954;5.932;2022-09-20T00:42:47;10.23;;;2.13;;
53652;SDS011;39553;52.954;5.932;2022-09-20T00:45:24;4.55;;;0.90;;
53652;SDS011;39553;52.954;5.932;2022-09-20T00:50:34;6.80;;;1.77;;
53652;SDS011;39553;52.954;5.932;2022-09-20T00:53:26;5.85;;;1.38;;
53652;SDS011;39553;52.954;5.932;2022-09-20T00:56:29;2.90;;;1.20;;
53652;SDS011;39553;52.954;5.932;2022-09-20T01:01:46;2.13;;;0.90;;
53652;SDS011;39553;52.954;5.932;2022-09-20T01:04:16;6.10;;;1.00;;
53652;SDS011;39553;52.954;5.932;2022-09-20T01:06:46;8.05;;;1.40;;
53652;SDS011;39553;52.954;5.932;2022-09-20T01:09:14;7.00;;;1.35;;
53652;SDS011;39553;52.954;5.932;2022-09-20T01:11:40;2.08;;;0.95;;
53652;SDS011;39553;52.954;5.932;2022-09-20T01:14:06;3.95;;;1.08;;
53652;SDS011;39553;52.954;5.932;2022-09-20T01:16:33;6.90;;;1.00;;
53652;SDS011;39553;52.954;5.932;2022-09-20T01:19:01;6.65;;;1.50;;
53652;SDS011;39553;52.954;5.932;2022-09-20T01:21:34;2.58;;;0.70;;
53652;SDS011;39553;52.954;5.932;2022-09-20T01:26:56;3.92;;;1.23;;
53652;SDS011;39553;52.954;5.932;2022-09-20T01:29:44;4.15;;;1.35;;
53652;SDS011;39553;52.954;5.932;2022-09-20T01:32:15;1.75;;;0.88;;
53652;SDS011;39553;52.954;5.932;2022-09-20T01:34:49;4.75;;;1.50;;
53652;SDS011;39553;52.954;5.932;2022-09-20T01:40:03;7.28;;;2.08;;
53652;SDS011;39553;52.954;5.932;2022-09-20T01:42:31;4.20;;;0.60;;
53652;SDS011;39553;52.954;5.932;2022-09-20T01:45:01;8.73;;;1.52;;
53652;SDS011;39553;52.954;5.932;2022-09-20T01:50:51;4.43;;;1.20;;
53652;SDS011;39553;52.954;5.932;2022-09-20T02:13:45;4.50;;;0.93;;
53652;SDS011;39553;52.954;5.932;2022-09-20T02:16:49;1.20;;;0.60;;
53652;SDS011;39553;52.954;5.932;2022-09-20T02:19:26;2.65;;;0.63;;
53652;SDS011;39553;52.954;5.932;2022-09-20T02:38:50;5.07;;;1.23;;
53652;SDS011;39553;52.954;5.932;2022-09-20T02:41:32;3.35;;;1.17;;
53652;SDS011;39553;52.954;5.932;2022-09-20T02:52:22;5.30;;;1.25;;
53652;SDS011;39553;52.954;5.932;2022-09-20T02:57:54;9.38;;;1.20;;
53652;SDS011;39553;52.954;5.932;2022-09-20T03:05:55;5.35;;;0.95;;
53652;SDS011;39553;52.954;5.932;2022-09-20T03:14:11;2.20;;;0.65;;
53652;SDS011;39553;52.954;5.932;2022-09-20T03:19:42;3.30;;;1.30;;
53652;SDS011;39553;52.954;5.932;2022-09-20T03:30:59;3.53;;;1.13;;
53652;SDS011;39553;52.954;5.932;2022-09-20T03:47:19;2.38;;;1.10;;
53652;SDS011;39553;52.954;5.932;2022-09-20T04:00:31;5.72;;;1.05;;
53652;SDS011;39553;52.954;5.932;2022-09-20T04:09:33;6.05;;;1.40;;
53652;SDS011;39553;52.954;5.932;2022-09-20T04:12:19;2.55;;;0.80;;
53652;SDS011;39553;52.954;5.932;2022-09-20T04:14:54;3.80;;;1.23;;
53652;SDS011;39553;52.954;5.932;2022-09-20T04:17:37;4.00;;;1.25;;
53652;SDS011;39553;52.954;5.932;2022-09-20T04:20:18;7.82;;;1.55;;
53652;SDS011;39553;52.954;5.932;2022-09-20T04:22:56;2.28;;;0.85;;
53652;SDS011;39553;52.954;5.932;2022-09-20T04:25:34;4.95;;;0.93;;
53652;SDS011;39553;52.954;5.932;2022-09-20T04:30:35;3.30;;;1.00;;
53652;SDS011;39553;52.954;5.932;2022-09-20T04:33:17;3.88;;;1.30;;
53652;SDS011;39553;52.954;5.932;2022-09-20T04:38:45;4.25;;;1.20;;
53652;SDS011;39553;52.954;5.932;2022-09-20T04:44:29;1.55;;;1.13;;
53652;SDS011;39553;52.954;5.932;2022-09-20T04:50:22;5.78;;;1.70;;
53652;SDS011;39553;52.954;5.932;2022-09-20T04:56:15;4.97;;;1.20;;
53652;SDS011;39553;52.954;5.932;2022-09-20T04:59:05;2.78;;;1.35;;
53652;SDS011;39553;52.954;5.932;2022-09-20T05:23:13;4.15;;;0.98;;
53652;SDS011;39553;52.954;5.932;2022-09-20T05:28:52;5.18;;;1.30;;
53652;SDS011;39553;52.954;5.932;2022-09-20T05:31:32;3.25;;;1.50;;
53652;SDS011;39553;52.954;5.932;2022-09-20T05:34:08;2.03;;;0.77;;
53652;SDS011;39553;52.954;5.932;2022-09-20T05:36:48;5.60;;;1.05;;
53652;SDS011;39553;52.954;5.932;2022-09-20T05:39:45;3.92;;;0.82;;
53652;SDS011;39553;52.954;5.932;2022-09-20T05:42:18;2.33;;;1.20;;
53652;SDS011;39553;52.954;5.932;2022-09-20T05:47:34;5.40;;;1.10;;
53652;SDS011;39553;52.954;5.932;2022-09-20T05:50:19;6.60;;;0.80;;
53652;SDS011;39553;52.954;5.932;2022-09-20T05:58:21;4.63;;;1.27;;
53652;SDS011;39553;52.954;5.932;2022-09-20T06:01:06;3.45;;;0.95;;
53652;SDS011;39553;52.954;5.932;2022-09-20T06:04:01;4.78;;;1.20;;
53652;SDS011;39553;52.954;5.932;2022-09-20T06:12:24;4.70;;;1.17;;
53652;SDS011;39553;52.954;5.932;2022-09-20T06:23:33;12.45;;;1.45;;
53652;SDS011;39553;52.954;5.932;2022-09-20T06:26:34;7.40;;;1.48;;
53652;SDS011;39553;52.954;5.932;2022-09-20T06:28:57;3.75;;;1.85;;
53652;SDS011;39553;52.954;5.932;2022-09-20T06:31:26;6.40;;;1.45;;
53652;SDS011;39553;52.954;5.932;2022-09-20T06:33:54;8.15;;;2.17;;
53652;SDS011;39553;52.954;5.932;2022-09-20T06:36:27;7.97;;;1.48;;
53652;SDS011;39553;52.954;5.932;2022-09-20T06:42:07;5.20;;;0.80;;
53652;SDS011;39553;52.954;5.932;2022-09-20T06:44:34;4.90;;;1.10;;
53652;SDS011;39553;52.954;5.932;2022-09-20T06:47:14;2.53;;;1.13;;
53652;SDS011;39553;52.954;5.932;2022-09-20T06:49:40;4.30;;;1.27;;
53652;SDS011;39553;52.954;5.932;2022-09-20T06:52:18;6.82;;;1.23;;
53652;SDS011;39553;52.954;5.932;2022-09-20T06:54:47;4.63;;;0.93;;
53652;SDS011;39553;52.954;5.932;2022-09-20T06:57:37;3.90;;;1.10;;
53652;SDS011;39553;52.954;5.932;2022-09-20T07:00:06;4.22;;;1.40;;
53652;SDS011;39553;52.954;5.932;2022-09-20T07:02:35;4.13;;;1.70;;
53652;SDS011;39553;52.954;5.932;2022-09-20T07:05:01;6.32;;;1.65;;
53652;SDS011;39553;52.954;5.932;2022-09-20T07:07:26;7.43;;;1.33;;
53652;SDS011;39553;52.954;5.932;2022-09-20T07:09:52;5.32;;;1.48;;
53652;SDS011;39553;52.954;5.932;2022-09-20T07:12:18;2.88;;;1.10;;
53652;SDS011;39553;52.954;5.932;2022-09-20T07:14:48;2.45;;;1.02;;
53652;SDS011;39553;52.954;5.932;2022-09-20T07:17:14;4.35;;;1.10;;
53652;SDS011;39553;52.954;5.932;2022-09-20T07:19:40;9.90;;;1.20;;
53652;SDS011;39553;52.954;5.932;2022-09-20T07:22:06;4.65;;;1.92;;
53652;SDS011;39553;52.954;5.932;2022-09-20T07:24:32;5.72;;;2.55;;
53652;SDS011;39553;52.954;5.932;2022-09-20T07:27:03;7.43;;;1.38;;
53652;SDS011;39553;52.954;5.932;2022-09-20T07:29:29;6.10;;;1.63;;
53652;SDS011;39553;52.954;5.932;2022-09-20T07:31:55;4.32;;;1.50;;
53652;SDS011;39553;52.954;5.932;2022-09-20T07:34:22;4.95;;;1.17;;
53652;SDS011;39553;52.954;5.932;2022-09-20T07:36:48;6.07;;;2.15;;
53652;SDS011;39553;52.954;5.932;2022-09-20T07:39:18;4.68;;;1.23;;
53652;SDS011;39553;52.954;5.932;2022-09-20T07:41:44;13.35;;;1.85;;
53652;SDS011;39553;52.954;5.932;2022-09-20T07:44:15;3.85;;;1.08;;
53652;SDS011;39553;52.954;5.932;2022-09-20T07:46:49;4.90;;;1.55;;
53652;SDS011;39553;52.954;5.932;2022-09-20T07:49:15;10.10;;;1.35;;
53652;SDS011;39553;52.954;5.932;2022-09-20T07:51:42;6.30;;;1.60;;
53652;SDS011;39553;52.954;5.932;2022-09-20T07:54:08;5.20;;;1.20;;
53652;SDS011;39553;52.954;5.932;2022-09-20T07:56:34;10.38;;;1.30;;
53652;SDS011;39553;52.954;5.932;2022-09-20T07:59:00;4.03;;;1.25;;
53652;SDS011;39553;52.954;5.932;2022-09-20T08:01:26;4.75;;;1.23;;
53652;SDS011;39553;52.954;5.932;2022-09-20T08:03:51;4.07;;;1.20;;
53652;SDS011;39553;52.954;5.932;2022-09-20T08:06:18;5.32;;;1.23;;
53652;SDS011;39553;52.954;5.932;2022-09-20T08:08:46;3.88;;;0.90;;
53652;SDS011;39553;52.954;5.932;2022-09-20T08:11:14;1.65;;;0.80;;
53652;SDS011;39553;52.954;5.932;2022-09-20T08:13:42;4.63;;;0.98;;
53652;SDS011;39553;52.954;5.932;2022-09-20T08:16:10;6.25;;;2.13;;
53652;SDS011;39553;52.954;5.932;2022-09-20T08:18:46;4.32;;;0.93;;
53652;SDS011;39553;52.954;5.932;2022-09-20T08:21:13;5.20;;;2.03;;
53652;SDS011;39553;52.954;5.932;2022-09-20T08:23:43;4.20;;;1.10;;
53652;SDS011;39553;52.954;5.932;2022-09-20T08:26:13;5.75;;;1.48;;
53652;SDS011;39553;52.954;5.932;2022-09-20T08:28:43;9.02;;;1.45;;
53652;SDS011;39553;52.954;5.932;2022-09-20T08:31:14;5.55;;;1.00;;
53652;SDS011;39553;52.954;5.932;2022-09-20T08:33:45;4.97;;;1.00;;
53652;SDS011;39553;52.954;5.932;2022-09-20T08:36:16;5.03;;;1.23;;
53652;SDS011;39553;52.954;5.932;2022-09-20T08:38:44;4.45;;;1.17;;
53652;SDS011;39553;52.954;5.932;2022-09-20T08:41:13;6.10;;;1.50;;
53652;SDS011;39553;52.954;5.932;2022-09-20T08:44:25;5.85;;;1.50;;
53652;SDS011;39553;52.954;5.932;2022-09-20T08:46:59;3.65;;;0.93;;
53652;SDS011;39553;52.954;5.932;2022-09-20T08:49:43;3.38;;;1.33;;
53652;SDS011;39553;52.954;5.932;2022-09-20T08:52:14;3.40;;;0.90;;
53652;SDS011;39553;52.954;5.932;2022-09-20T08:57:10;7.38;;;1.17;;
53652;SDS011;39553;52.954;5.932;2022-09-20T08:59:39;2.70;;;1.00;;
53652;SDS011;39553;52.954;5.932;2022-09-20T09:02:11;4.53;;;1.50;;
53652;SDS011;39553;52.954;5.932;2022-09-20T09:04:41;7.10;;;1.48;;
53652;SDS011;39553;52.954;5.932;2022-09-20T09:07:08;6.07;;;1.33;;
53652;SDS011;39553;52.954;5.932;2022-09-20T09:09:37;3.70;;;1.10;;
53652;SDS011;39553;52.954;5.932;2022-09-20T09:12:05;7.30;;;1.55;;
53652;SDS011;39553;52.954;5.932;2022-09-20T09:14:39;3.80;;;1.45;;
53652;SDS011;39553;52.954;5.932;2022-09-20T09:17:16;2.47;;;0.90;;
53652;SDS011;39553;52.954;5.932;2022-09-20T09:22:29;3.47;;;1.10;;
53652;SDS011;39553;52.954;5.932;2022-09-20T09:30:27;4.85;;;0.93;;
53652;SDS011;39553;52.954;5.932;2022-09-20T09:33:14;2.05;;;1.02;;
53652;SDS011;39553;52.954;5.932;2022-09-20T09:38:27;8.60;;;1.00;;
53652;SDS011;39553;52.954;5.932;2022-09-20T09:40:59;4.32;;;1.20;;
53652;SDS011;39553;52.954;5.932;2022-09-20T09:43:27;4.47;;;1.35;;
53652;SDS011;39553;52.954;5.932;2022-09-20T09:45:58;5.72;;;1.15;;
53652;SDS011;39553;52.954;5.932;2022-09-20T09:54:38;4.90;;;1.30;;
53652;SDS011;39553;52.954;5.932;2022-09-20T10:14:27;6.85;;;1.90;;
53652;SDS011;39553;52.954;5.932;2022-09-20T10:31:16;6.20;;;1.20;;
53652;SDS011;39553;52.954;5.932;2022-09-20T10:33:53;2.50;;;1.30;;
53652;SDS011;39553;52.954;5.932;2022-09-20T10:36:42;1.65;;;0.80;;
53652;SDS011;39553;52.954;5.932;2022-09-20T10:39:17;4.15;;;1.00;;
53652;SDS011;39553;52.954;5.932;2022-09-20T10:42:05;4.45;;;1.00;;
53652;SDS011;39553;52.954;5.932;2022-09-20T10:47:48;2.28;;;1.00;;
53652;SDS011;39553;52.954;5.932;2022-09-20T10:53:21;3.72;;;0.80;;
53652;SDS011;39553;52.954;5.932;2022-09-20T10:56:11;4.18;;;1.40;;
53652;SDS011;39553;52.954;5.932;2022-09-20T11:01:28;2.88;;;1.00;;
53652;SDS011;39553;52.954;5.932;2022-09-20T11:09:45;6.40;;;1.35;;
53652;SDS011;39553;52.954;5.932;2022-09-20T11:18:15;4.95;;;1.30;;
53652;SDS011;39553;52.954;5.932;2022-09-20T11:21:05;3.85;;;1.60;;
53652;SDS011;39553;52.954;5.932;2022-09-20T11:23:45;2.55;;;0.75;;
53652;SDS011;39553;52.954;5.932;2022-09-20T11:29:20;2.28;;;0.80;;
53652;SDS011;39553;52.954;5.932;2022-09-20T11:35:02;1.55;;;0.65;;
53652;SDS011;39553;52.954;5.932;2022-09-20T11:37:53;2.42;;;1.08;;
53652;SDS011;39553;52.954;5.932;2022-09-20T11:40:28;4.50;;;1.33;;
53652;SDS011;39553;52.954;5.932;2022-09-20T11:42:58;5.10;;;1.08;;
53652;SDS011;39553;52.954;5.932;2022-09-20T11:45:30;2.72;;;1.13;;
53652;SDS011;39553;52.954;5.932;2022-09-20T11:48:15;5.32;;;1.38;;
53652;SDS011;39553;52.954;5.932;2022-09-20T11:56:40;4.63;;;0.90;;
53652;SDS011;39553;52.954;5.932;2022-09-20T11:59:34;2.45;;;1.23;;
53652;SDS011;39553;52.954;5.932;2022-09-20T12:02:04;2.42;;;0.90;;
53652;SDS011;39553;52.954;5.932;2022-09-20T12:04:44;3.70;;;0.80;;
53652;SDS011;39553;52.954;5.932;2022-09-20T12:07:17;1.52;;;0.63;;
53652;SDS011;39553;52.954;5.932;2022-09-20T12:09:51;3.45;;;0.98;;
53652;SDS011;39553;52.954;5.932;2022-09-20T12:14:58;4.43;;;1.25;;
53652;SDS011;39553;52.954;5.932;2022-09-20T12:18:00;2.55;;;0.70;;
53652;SDS011;39553;52.954;5.932;2022-09-20T12:26:09;1.48;;;0.80;;
53652;SDS011;39553;52.954;5.932;2022-09-20T12:28:44;8.20;;;1.42;;
53652;SDS011;39553;52.954;5.932;2022-09-20T12:36:23;3.08;;;1.08;;
53652;SDS011;39553;52.954;5.932;2022-09-20T12:39:14;2.95;;;0.68;;
53652;SDS011;39553;52.954;5.932;2022-09-20T12:44:27;6.05;;;1.10;;
53652;SDS011;39553;52.954;5.932;2022-09-20T13:03:11;6.95;;;1.20;;
53652;SDS011;39553;52.954;5.932;2022-09-20T13:06:33;1.45;;;1.15;;
53652;SDS011;39553;52.954;5.932;2022-09-20T13:19:31;3.72;;;0.70;;
53652;SDS011;39553;52.954;5.932;2022-09-20T13:22:22;2.95;;;0.68;;
53652;SDS011;39553;52.954;5.932;2022-09-20T13:25:12;3.33;;;1.23;;
53652;SDS011;39553;52.954;5.932;2022-09-20T13:28:01;5.95;;;1.45;;
53652;SDS011;39553;52.954;5.932;2022-09-20T13:30:26;2.65;;;1.02;;
53652;SDS011;39553;52.954;5.932;2022-09-20T13:32:55;3.53;;;0.98;;
53652;SDS011;39553;52.954;5.932;2022-09-20T13:35:25;2.72;;;0.95;;
53652;SDS011;39553;52.954;5.932;2022-09-20T13:38:03;6.53;;;1.38;;
53652;SDS011;39553;52.954;5.932;2022-09-20T13:40:43;2.72;;;1.27;;
53652;SDS011;39553;52.954;5.932;2022-09-20T13:43:27;5.65;;;1.08;;
53652;SDS011;39553;52.954;5.932;2022-09-20T13:46:05;3.95;;;1.38;;
53652;SDS011;39553;52.954;5.932;2022-09-20T13:48:31;5.57;;;1.25;;
53652;SDS011;39553;52.954;5.932;2022-09-20T13:50:57;2.90;;;0.80;;
53652;SDS011;39553;52.954;5.932;2022-09-20T13:53:24;2.20;;;0.80;;
53652;SDS011;39553;52.954;5.932;2022-09-20T13:55:51;4.80;;;1.00;;
53652;SDS011;39553;52.954;5.932;2022-09-20T13:58:22;8.60;;;1.38;;
53652;SDS011;39553;52.954;5.932;2022-09-20T14:01:17;4.13;;;0.60;;
53652;SDS011;39553;52.954;5.932;2022-09-20T14:06:21;3.65;;;1.10;;
53652;SDS011;39553;52.954;5.932;2022-09-20T14:08:53;3.15;;;0.80;;
53652;SDS011;39553;52.954;5.932;2022-09-20T14:11:26;7.43;;;1.77;;
53652;SDS011;39553;52.954;5.932;2022-09-20T14:13:55;3.22;;;0.73;;
53652;SDS011;39553;52.954;5.932;2022-09-20T14:16:26;1.27;;;0.95;;
53652;SDS011;39553;52.954;5.932;2022-09-20T14:18:57;4.65;;;0.90;;
53652;SDS011;39553;52.954;5.932;2022-09-20T14:21:25;1.60;;;0.90;;
53652;SDS011;39553;52.954;5.932;2022-09-20T14:23:53;2.72;;;1.00;;
53652;SDS011;39553;52.954;5.932;2022-09-20T14:26:31;4.75;;;1.65;;
53652;SDS011;39553;52.954;5.932;2022-09-20T14:32:10;5.30;;;1.20;;
53652;SDS011;39553;52.954;5.932;2022-09-20T14:34:40;4.47;;;1.13;;
53652;SDS011;39553;52.954;5.932;2022-09-20T14:37:12;2.88;;;1.00;;
53652;SDS011;39553;52.954;5.932;2022-09-20T14:39:54;4.38;;;1.20;;
53652;SDS011;39553;52.954;5.932;2022-09-20T14:42:24;6.43;;;1.50;;
53652;SDS011;39553;52.954;5.932;2022-09-20T14:48:44;6.72;;;1.13;;
53652;SDS011;39553;52.954;5.932;2022-09-20T14:53:47;3.42;;;1.00;;
53652;SDS011;39553;52.954;5.932;2022-09-20T14:56:15;6.85;;;1.30;;
53652;SDS011;39553;52.954;5.932;2022-09-20T15:01:29;4.60;;;1.38;;
53652;SDS011;39553;52.954;5.932;2022-09-20T15:03:55;4.72;;;1.00;;
53652;SDS011;39553;52.954;5.932;2022-09-20T15:06:22;3.38;;;0.85;;
53652;SDS011;39553;52.954;5.932;2022-09-20T15:08:49;7.25;;;1.30;;
53652;SDS011;39553;52.954;5.932;2022-09-20T15:11:18;13.02;;;1.45;;
53652;SDS011;39553;52.954;5.932;2022-09-20T15:13:44;2.38;;;1.08;;
53652;SDS011;39553;52.954;5.932;2022-09-20T15:16:11;2.53;;;0.90;;
53652;SDS011;39553;52.954;5.932;2022-09-20T15:18:39;3.65;;;1.10;;
53652;SDS011;39553;52.954;5.932;2022-09-20T15:21:06;5.88;;;1.13;;
53652;SDS011;39553;52.954;5.932;2022-09-20T15:23:34;5.18;;;1.63;;
53652;SDS011;39553;52.954;5.932;2022-09-20T15:26:01;3.53;;;1.15;;
53652;SDS011;39553;52.954;5.932;2022-09-20T15:28:28;3.90;;;1.23;;
53652;SDS011;39553;52.954;5.932;2022-09-20T15:30:56;2.25;;;0.90;;
53652;SDS011;39553;52.954;5.932;2022-09-20T15:33:22;3.85;;;1.10;;
53652;SDS011;39553;52.954;5.932;2022-09-20T15:35:48;2.40;;;0.70;;
53652;SDS011;39553;52.954;5.932;2022-09-20T15:38:17;5.35;;;1.08;;
53652;SDS011;39553;52.954;5.932;2022-09-20T15:40:44;4.53;;;0.98;;
53652;SDS011;39553;52.954;5.932;2022-09-20T15:43:13;3.45;;;1.30;;
53652;SDS011;39553;52.954;5.932;2022-09-20T15:45:49;3.10;;;0.77;;
53652;SDS011;39553;52.954;5.932;2022-09-20T15:48:17;3.83;;;0.95;;
53652;SDS011;39553;52.954;5.932;2022-09-20T15:51:05;6.88;;;1.02;;
53652;SDS011;39553;52.954;5.932;2022-09-20T15:53:36;4.55;;;1.27;;
53652;SDS011;39553;52.954;5.932;2022-09-20T15:56:12;7.15;;;1.10;;
53652;SDS011;39553;52.954;5.932;2022-09-20T15:58:46;4.80;;;0.90;;
53652;SDS011;39553;52.954;5.932;2022-09-20T16:01:14;5.95;;;1.08;;
53652;SDS011;39553;52.954;5.932;2022-09-20T16:03:41;6.22;;;1.27;;
53652;SDS011;39553;52.954;5.932;2022-09-20T16:06:08;4.13;;;1.27;;
53652;SDS011;39553;52.954;5.932;2022-09-20T16:08:35;3.42;;;0.90;;
53652;SDS011;39553;52.954;5.932;2022-09-20T16:11:03;14.95;;;4.40;;
53652;SDS011;39553;52.954;5.932;2022-09-20T16:13:30;6.97;;;1.70;;
53652;SDS011;39553;52.954;5.932;2022-09-20T16:16:00;4.47;;;1.23;;
53652;SDS011;39553;52.954;5.932;2022-09-20T16:18:27;6.35;;;1.50;;
53652;SDS011;39553;52.954;5.932;2022-09-20T16:21:12;5.40;;;1.33;;
53652;SDS011;39553;52.954;5.932;2022-09-20T16:23:40;4.78;;;1.83;;
53652;SDS011;39553;52.954;5.932;2022-09-20T16:26:10;8.65;;;2.40;;
53652;SDS011;39553;52.954;5.932;2022-09-20T16:28:40;7.50;;;1.60;;
53652;SDS011;39553;52.954;5.932;2022-09-20T16:33:58;3.97;;;1.23;;
53652;SDS011;39553;52.954;5.932;2022-09-20T16:36:29;5.65;;;0.90;;
53652;SDS011;39553;52.954;5.932;2022-09-20T16:38:55;3.63;;;1.00;;
53652;SDS011;39553;52.954;5.932;2022-09-20T16:41:23;3.28;;;1.30;;
53652;SDS011;39553;52.954;5.932;2022-09-20T16:43:50;6.70;;;1.60;;
53652;SDS011;39553;52.954;5.932;2022-09-20T16:46:20;4.88;;;1.10;;
53652;SDS011;39553;52.954;5.932;2022-09-20T16:48:49;5.80;;;1.10;;
53652;SDS011;39553;52.954;5.932;2022-09-20T16:51:17;5.90;;;1.30;;
53652;SDS011;39553;52.954;5.932;2022-09-20T16:53:43;2.15;;;1.08;;
53652;SDS011;39553;52.954;5.932;2022-09-20T16:56:19;4.43;;;0.80;;
53652;SDS011;39553;52.954;5.932;2022-09-20T16:58:47;2.63;;;1.02;;
53652;SDS011;39553;52.954;5.932;2022-09-20T17:01:13;3.40;;;0.98;;
53652;SDS011;39553;52.954;5.932;2022-09-20T17:03:39;4.78;;;1.05;;
53652;SDS011;39553;52.954;5.932;2022-09-20T17:06:05;4.47;;;0.80;;
53652;SDS011;39553;52.954;5.932;2022-09-20T17:08:36;2.38;;;1.17;;
53652;SDS011;39553;52.954;5.932;2022-09-20T17:11:17;3.88;;;0.80;;
53652;SDS011;39553;52.954;5.932;2022-09-20T17:13:47;4.70;;;1.27;;
53652;SDS011;39553;52.954;5.932;2022-09-20T17:16:17;2.28;;;0.95;;
53652;SDS011;39553;52.954;5.932;2022-09-20T17:19:29;5.97;;;1.00;;
53652;SDS011;39553;52.954;5.932;2022-09-20T17:21:41;2.50;;;0.88;;
53652;SDS011;39553;52.954;5.932;2022-09-20T17:24:09;4.57;;;1.00;;
53652;SDS011;39553;52.954;5.932;2022-09-20T17:26:36;2.58;;;1.27;;
53652;SDS011;39553;52.954;5.932;2022-09-20T17:29:05;4.53;;;1.20;;
53652;SDS011;39553;52.954;5.932;2022-09-20T17:31:34;1.90;;;1.10;;
53652;SDS011;39553;52.954;5.932;2022-09-20T17:34:02;5.80;;;1.40;;
53652;SDS011;39553;52.954;5.932;2022-09-20T17:36:31;4.63;;;1.38;;
53652;SDS011;39553;52.954;5.932;2022-09-20T17:39:03;2.50;;;1.05;;
53652;SDS011;39553;52.954;5.932;2022-09-20T17:41:30;4.85;;;0.88;;
53652;SDS011;39553;52.954;5.932;2022-09-20T17:43:58;4.47;;;1.10;;
53652;SDS011;39553;52.954;5.932;2022-09-20T17:46:29;4.45;;;1.00;;
53652;SDS011;39553;52.954;5.932;2022-09-20T17:48:57;3.70;;;1.20;;
53652;SDS011;39553;52.954;5.932;2022-09-20T17:51:35;4.47;;;1.10;;
53652;SDS011;39553;52.954;5.932;2022-09-20T17:54:03;9.25;;;1.30;;
53652;SDS011;39553;52.954;5.932;2022-09-20T17:56:30;3.67;;;1.48;;
53652;SDS011;39553;52.954;5.932;2022-09-20T17:58:57;6.20;;;1.55;;
53652;SDS011;39553;52.954;5.932;2022-09-20T18:01:24;4.50;;;0.85;;
53652;SDS011;39553;52.954;5.932;2022-09-20T18:03:51;4.18;;;0.90;;
53652;SDS011;39553;52.954;5.932;2022-09-20T18:08:54;3.60;;;1.13;;
53652;SDS011;39553;52.954;5.932;2022-09-20T18:11:22;6.75;;;1.20;;
53652;SDS011;39553;52.954;5.932;2022-09-20T18:13:53;3.55;;;0.98;;
53652;SDS011;39553;52.954;5.932;2022-09-20T18:16:19;3.35;;;1.10;;
53652;SDS011;39553;52.954;5.932;2022-09-20T18:18:45;7.45;;;1.40;;
53652;SDS011;39553;52.954;5.932;2022-09-20T18:21:15;3.22;;;0.90;;
53652;SDS011;39553;52.954;5.932;2022-09-20T18:23:42;8.15;;;1.55;;
53652;SDS011;39553;52.954;5.932;2022-09-20T18:26:10;5.00;;;1.08;;
53652;SDS011;39553;52.954;5.932;2022-09-20T18:28:49;4.43;;;1.88;;
53652;SDS011;39553;52.954;5.932;2022-09-20T18:31:15;7.55;;;1.35;;
53652;SDS011;39553;52.954;5.932;2022-09-20T18:33:42;4.47;;;1.25;;
53652;SDS011;39553;52.954;5.932;2022-09-20T18:36:08;4.18;;;1.27;;
53652;SDS011;39553;52.954;5.932;2022-09-20T18:38:34;4.88;;;1.02;;
53652;SDS011;39553;52.954;5.932;2022-09-20T18:41:00;6.82;;;1.50;;
53652;SDS011;39553;52.954;5.932;2022-09-20T18:43:31;4.03;;;1.92;;
53652;SDS011;39553;52.954;5.932;2022-09-20T18:45:59;6.18;;;1.90;;
53652;SDS011;39553;52.954;5.932;2022-09-20T18:48:25;5.95;;;1.10;;
53652;SDS011;39553;52.954;5.932;2022-09-20T18:51:03;5.25;;;1.38;;
53652;SDS011;39553;52.954;5.932;2022-09-20T18:53:32;6.38;;;1.50;;
53652;SDS011;39553;52.954;5.932;2022-09-20T18:56:17;4.70;;;1.38;;
53652;SDS011;39553;52.954;5.932;2022-09-20T18:59:03;3.70;;;1.13;;
53652;SDS011;39553;52.954;5.932;2022-09-20T19:27:03;6.53;;;2.00;;
53652;SDS011;39553;52.954;5.932;2022-09-20T19:29:29;5.35;;;2.17;;
53652;SDS011;39553;52.954;5.932;2022-09-20T19:31:56;8.05;;;2.25;;
53652;SDS011;39553;52.954;5.932;2022-09-20T19:34:25;6.35;;;2.53;;
53652;SDS011;39553;52.954;5.932;2022-09-20T19:42:40;7.97;;;2.58;;
53652;SDS011;39553;52.954;5.932;2022-09-20T19:50:41;5.20;;;2.00;;
53652;SDS011;39553;52.954;5.932;2022-09-20T19:53:18;9.98;;;2.38;;
53652;SDS011;39553;52.954;5.932;2022-09-20T19:55:52;5.75;;;2.35;;
53652;SDS011;39553;52.954;5.932;2022-09-20T19:58:21;7.00;;;2.45;;
53652;SDS011;39553;52.954;5.932;2022-09-20T20:00:47;4.05;;;2.35;;
53652;SDS011;39553;52.954;5.932;2022-09-20T20:03:14;8.25;;;2.63;;
53652;SDS011;39553;52.954;5.932;2022-09-20T20:06:44;4.38;;;2.30;;
53652;SDS011;39553;52.954;5.932;2022-09-20T20:08:49;7.38;;;2.30;;
53652;SDS011;39553;52.954;5.932;2022-09-20T20:25:02;5.32;;;2.60;;
53652;SDS011;39553;52.954;5.932;2022-09-20T20:27:28;4.57;;;2.00;;
53652;SDS011;39553;52.954;5.932;2022-09-20T20:29:56;6.28;;;2.35;;
53652;SDS011;39553;52.954;5.932;2022-09-20T20:32:22;5.28;;;2.33;;
53652;SDS011;39553;52.954;5.932;2022-09-20T20:34:49;6.38;;;3.35;;
53652;SDS011;39553;52.954;5.932;2022-09-20T20:37:15;8.10;;;3.28;;
53652;SDS011;39553;52.954;5.932;2022-09-20T20:39:42;12.35;;;3.38;;
53652;SDS011;39553;52.954;5.932;2022-09-20T20:42:08;8.63;;;2.78;;
53652;SDS011;39553;52.954;5.932;2022-09-20T20:44:34;8.55;;;2.70;;
53652;SDS011;39553;52.954;5.932;2022-09-20T20:47:00;6.43;;;2.85;;
53652;SDS011;39553;52.954;5.932;2022-09-20T20:49:27;6.95;;;3.50;;
53652;SDS011;39553;52.954;5.932;2022-09-20T20:51:53;5.93;;;3.10;;
53652;SDS011;39553;52.954;5.932;2022-09-20T20:54:20;8.93;;;3.67;;
53652;SDS011;39553;52.954;5.932;2022-09-20T20:56:46;4.35;;;2.55;;
53652;SDS011;39553;52.954;5.932;2022-09-20T20:59:11;9.30;;;3.65;;
53652;SDS011;39553;52.954;5.932;2022-09-20T21:01:41;7.10;;;3.92;;
53652;SDS011;39553;52.954;5.932;2022-09-20T21:04:10;8.35;;;2.83;;
53652;SDS011;39553;52.954;5.932;2022-09-20T21:06:36;6.53;;;2.80;;
53652;SDS011;39553;52.954;5.932;2022-09-20T21:09:07;13.20;;;3.75;;
53652;SDS011;39553;52.954;5.932;2022-09-20T21:11:35;6.97;;;2.70;;
53652;SDS011;39553;52.954;5.932;2022-09-20T21:14:02;6.78;;;3.03;;
53652;SDS011;39553;52.954;5.932;2022-09-20T21:16:34;7.72;;;2.95;;
53652;SDS011;39553;52.954;5.932;2022-09-20T21:19:02;8.65;;;3.13;;
53652;SDS011;39553;52.954;5.932;2022-09-20T21:21:33;12.80;;;3.47;;
53652;SDS011;39553;52.954;5.932;2022-09-20T21:24:04;9.02;;;3.80;;
53652;SDS011;39553;52.954;5.932;2022-09-20T21:26:32;5.55;;;3.10;;
53652;SDS011;39553;52.954;5.932;2022-09-20T21:28:59;8.95;;;2.70;;
53652;SDS011;39553;52.954;5.932;2022-09-20T21:31:28;7.93;;;3.28;;
53652;SDS011;39553;52.954;5.932;2022-09-20T21:33:55;10.38;;;4.15;;
53652;SDS011;39553;52.954;5.932;2022-09-20T21:36:22;5.90;;;3.20;;